sensor_id;sensor_type;location;lat;lon;timestamp;P1;durP1;ratioP1;P2;durP2;ratioP2
65459;SDS011;52058;49.822;6.754;2023-05-16T00:00:59;2.22;;;2.03;;
65459;SDS011;52058;49.822;6.754;2023-05-16T00:03:26;2.50;;;1.90;;
65459;SDS011;52058;49.822;6.754;2023-05-16T00:05:54;2.65;;;1.77;;
65459;SDS011;52058;49.822;6.754;2023-05-16T00:08:23;2.38;;;1.88;;
65459;SDS011;52058;49.822;6.754;2023-05-16T00:10:50;1.65;;;1.55;;
65459;SDS011;52058;49.822;6.754;2023-05-16T00:13:17;2.50;;;1.50;;
65459;SDS011;52058;49.822;6.754;2023-05-16T00:15:49;2.17;;;1.58;;
65459;SDS011;52058;49.822;6.754;2023-05-16T00:18:15;1.73;;;1.50;;
65459;SDS011;52058;49.822;6.754;2023-05-16T00:20:43;2.50;;;1.52;;
65459;SDS011;52058;49.822;6.754;2023-05-16T00:23:10;1.52;;;1.40;;
65459;SDS011;52058;49.822;6.754;2023-05-16T00:25:38;2.55;;;1.40;;
65459;SDS011;52058;49.822;6.754;2023-05-16T00:28:05;1.50;;;1.40;;
65459;SDS011;52058;49.822;6.754;2023-05-16T00:30:32;1.92;;;1.40;;
65459;SDS011;52058;49.822;6.754;2023-05-16T00:32:58;1.55;;;1.30;;
65459;SDS011;52058;49.822;6.754;2023-05-16T00:35:26;3.17;;;1.52;;
65459;SDS011;52058;49.822;6.754;2023-05-16T00:37:52;2.17;;;1.20;;
65459;SDS011;52058;49.822;6.754;2023-05-16T00:40:19;1.85;;;1.65;;
65459;SDS011;52058;49.822;6.754;2023-05-16T00:42:46;3.38;;;1.85;;
65459;SDS011;52058;49.822;6.754;2023-05-16T00:45:13;1.83;;;1.65;;
65459;SDS011;52058;49.822;6.754;2023-05-16T00:47:40;2.47;;;1.40;;
65459;SDS011;52058;49.822;6.754;2023-05-16T00:50:07;1.58;;;1.45;;
65459;SDS011;52058;49.822;6.754;2023-05-16T00:52:34;1.55;;;1.40;;
65459;SDS011;52058;49.822;6.754;2023-05-16T00:55:01;1.40;;;1.30;;
65459;SDS011;52058;49.822;6.754;2023-05-16T00:57:27;2.50;;;1.40;;
65459;SDS011;52058;49.822;6.754;2023-05-16T00:59:56;1.88;;;1.60;;
65459;SDS011;52058;49.822;6.754;2023-05-16T01:02:23;1.83;;;1.60;;
65459;SDS011;52058;49.822;6.754;2023-05-16T01:04:52;1.70;;;1.45;;
65459;SDS011;52058;49.822;6.754;2023-05-16T01:07:20;2.63;;;1.70;;
65459;SDS011;52058;49.822;6.754;2023-05-16T01:09:47;1.98;;;1.70;;
65459;SDS011;52058;49.822;6.754;2023-05-16T01:12:15;2.75;;;1.80;;
65459;SDS011;52058;49.822;6.754;2023-05-16T01:14:50;1.92;;;1.55;;
65459;SDS011;52058;49.822;6.754;2023-05-16T01:17:28;2.50;;;1.90;;
65459;SDS011;52058;49.822;6.754;2023-05-16T01:20:03;3.72;;;1.73;;
65459;SDS011;52058;49.822;6.754;2023-05-16T01:22:44;1.67;;;1.50;;
65459;SDS011;52058;49.822;6.754;2023-05-16T01:25:25;1.67;;;1.38;;
65459;SDS011;52058;49.822;6.754;2023-05-16T01:27:58;1.35;;;1.20;;
65459;SDS011;52058;49.822;6.754;2023-05-16T01:30:26;2.50;;;1.67;;
65459;SDS011;52058;49.822;6.754;2023-05-16T01:32:57;1.70;;;1.38;;
65459;SDS011;52058;49.822;6.754;2023-05-16T01:35:23;2.08;;;1.50;;
65459;SDS011;52058;49.822;6.754;2023-05-16T01:37:51;2.17;;;1.40;;
65459;SDS011;52058;49.822;6.754;2023-05-16T01:40:26;2.05;;;1.40;;
65459;SDS011;52058;49.822;6.754;2023-05-16T01:43:02;2.42;;;1.25;;
65459;SDS011;52058;49.822;6.754;2023-05-16T01:45:33;2.30;;;1.30;;
65459;SDS011;52058;49.822;6.754;2023-05-16T01:48:06;1.95;;;1.30;;
65459;SDS011;52058;49.822;6.754;2023-05-16T01:50:37;1.60;;;1.20;;
65459;SDS011;52058;49.822;6.754;2023-05-16T01:55:38;1.63;;;1.52;;
65459;SDS011;52058;49.822;6.754;2023-05-16T01:58:10;1.80;;;1.23;;
65459;SDS011;52058;49.822;6.754;2023-05-16T02:00:38;1.50;;;1.30;;
65459;SDS011;52058;49.822;6.754;2023-05-16T02:03:04;1.33;;;1.15;;
65459;SDS011;52058;49.822;6.754;2023-05-16T02:05:31;1.20;;;1.10;;
65459;SDS011;52058;49.822;6.754;2023-05-16T02:07:58;2.28;;;1.40;;
65459;SDS011;52058;49.822;6.754;2023-05-16T02:10:25;1.60;;;1.13;;
65459;SDS011;52058;49.822;6.754;2023-05-16T02:12:51;1.88;;;1.30;;
65459;SDS011;52058;49.822;6.754;2023-05-16T02:15:19;2.97;;;1.40;;
65459;SDS011;52058;49.822;6.754;2023-05-16T02:17:46;2.25;;;1.02;;
65459;SDS011;52058;49.822;6.754;2023-05-16T02:20:12;2.72;;;1.15;;
65459;SDS011;52058;49.822;6.754;2023-05-16T02:22:39;1.48;;;1.08;;
65459;SDS011;52058;49.822;6.754;2023-05-16T02:25:07;1.27;;;0.98;;
65459;SDS011;52058;49.822;6.754;2023-05-16T02:27:34;1.23;;;1.00;;
65459;SDS011;52058;49.822;6.754;2023-05-16T02:30:00;2.10;;;1.00;;
65459;SDS011;52058;49.822;6.754;2023-05-16T02:32:30;2.30;;;1.02;;
65459;SDS011;52058;49.822;6.754;2023-05-16T02:34:56;0.80;;;0.80;;
65459;SDS011;52058;49.822;6.754;2023-05-16T02:37:23;1.33;;;0.90;;
65459;SDS011;52058;49.822;6.754;2023-05-16T02:39:49;1.23;;;1.00;;
65459;SDS011;52058;49.822;6.754;2023-05-16T02:42:16;0.90;;;0.90;;
65459;SDS011;52058;49.822;6.754;2023-05-16T02:44:42;1.35;;;0.85;;
65459;SDS011;52058;49.822;6.754;2023-05-16T02:47:09;1.70;;;0.95;;
65459;SDS011;52058;49.822;6.754;2023-05-16T02:49:37;1.40;;;0.90;;
65459;SDS011;52058;49.822;6.754;2023-05-16T02:52:04;1.20;;;1.08;;
65459;SDS011;52058;49.822;6.754;2023-05-16T02:54:31;1.48;;;1.02;;
65459;SDS011;52058;49.822;6.754;2023-05-16T02:56:58;2.10;;;0.90;;
65459;SDS011;52058;49.822;6.754;2023-05-16T02:59:24;0.93;;;0.90;;
65459;SDS011;52058;49.822;6.754;2023-05-16T03:01:51;2.63;;;0.80;;
65459;SDS011;52058;49.822;6.754;2023-05-16T03:04:18;1.15;;;0.70;;
65459;SDS011;52058;49.822;6.754;2023-05-16T03:06:46;1.25;;;0.80;;
65459;SDS011;52058;49.822;6.754;2023-05-16T03:09:12;1.73;;;0.93;;
65459;SDS011;52058;49.822;6.754;2023-05-16T03:11:39;0.80;;;0.80;;
65459;SDS011;52058;49.822;6.754;2023-05-16T03:14:05;1.02;;;0.80;;
65459;SDS011;52058;49.822;6.754;2023-05-16T03:16:32;1.73;;;0.80;;
65459;SDS011;52058;49.822;6.754;2023-05-16T03:19:00;0.90;;;0.80;;
65459;SDS011;52058;49.822;6.754;2023-05-16T03:21:27;1.45;;;1.35;;
65459;SDS011;52058;49.822;6.754;2023-05-16T03:23:55;1.02;;;0.77;;
65459;SDS011;52058;49.822;6.754;2023-05-16T03:26:22;0.75;;;0.70;;
65459;SDS011;52058;49.822;6.754;2023-05-16T03:28:48;0.80;;;0.80;;
65459;SDS011;52058;49.822;6.754;2023-05-16T03:31:16;1.00;;;0.77;;
65459;SDS011;52058;49.822;6.754;2023-05-16T03:33:43;1.70;;;0.77;;
65459;SDS011;52058;49.822;6.754;2023-05-16T03:36:09;0.70;;;0.70;;
65459;SDS011;52058;49.822;6.754;2023-05-16T03:38:36;1.50;;;0.90;;
65459;SDS011;52058;49.822;6.754;2023-05-16T03:41:04;1.35;;;0.70;;
65459;SDS011;52058;49.822;6.754;2023-05-16T03:43:30;1.25;;;0.70;;
65459;SDS011;52058;49.822;6.754;2023-05-16T03:45:57;0.93;;;0.70;;
65459;SDS011;52058;49.822;6.754;2023-05-16T03:48:26;0.93;;;0.73;;
65459;SDS011;52058;49.822;6.754;2023-05-16T03:50:52;2.20;;;0.80;;
65459;SDS011;52058;49.822;6.754;2023-05-16T03:53:19;1.40;;;0.80;;
65459;SDS011;52058;49.822;6.754;2023-05-16T03:55:45;0.80;;;0.80;;
65459;SDS011;52058;49.822;6.754;2023-05-16T03:58:13;1.92;;;0.90;;
65459;SDS011;52058;49.822;6.754;2023-05-16T04:00:40;2.25;;;0.93;;
65459;SDS011;52058;49.822;6.754;2023-05-16T04:03:07;0.90;;;0.85;;
65459;SDS011;52058;49.822;6.754;2023-05-16T04:05:33;1.13;;;0.77;;
65459;SDS011;52058;49.822;6.754;2023-05-16T04:08:00;1.17;;;1.08;;
65459;SDS011;52058;49.822;6.754;2023-05-16T04:10:26;1.60;;;0.82;;
65459;SDS011;52058;49.822;6.754;2023-05-16T04:12:53;1.23;;;1.00;;
65459;SDS011;52058;49.822;6.754;2023-05-16T04:15:21;1.08;;;0.90;;
65459;SDS011;52058;49.822;6.754;2023-05-16T04:17:47;0.98;;;0.90;;
65459;SDS011;52058;49.822;6.754;2023-05-16T04:20:14;1.02;;;0.93;;
65459;SDS011;52058;49.822;6.754;2023-05-16T04:22:40;0.80;;;0.80;;
65459;SDS011;52058;49.822;6.754;2023-05-16T04:25:07;0.60;;;0.60;;
65459;SDS011;52058;49.822;6.754;2023-05-16T04:27:35;0.50;;;0.45;;
65459;SDS011;52058;49.822;6.754;2023-05-16T04:30:02;1.05;;;0.70;;
65459;SDS011;52058;49.822;6.754;2023-05-16T04:32:31;1.20;;;0.70;;
65459;SDS011;52058;49.822;6.754;2023-05-16T04:34:59;0.80;;;0.70;;
65459;SDS011;52058;49.822;6.754;2023-05-16T04:37:26;1.33;;;0.75;;
65459;SDS011;52058;49.822;6.754;2023-05-16T04:39:52;1.25;;;0.70;;
65459;SDS011;52058;49.822;6.754;2023-05-16T04:42:19;1.10;;;0.80;;
65459;SDS011;52058;49.822;6.754;2023-05-16T04:44:46;1.77;;;0.75;;
65459;SDS011;52058;49.822;6.754;2023-05-16T04:47:12;2.05;;;0.60;;
65459;SDS011;52058;49.822;6.754;2023-05-16T04:49:40;2.28;;;0.75;;
65459;SDS011;52058;49.822;6.754;2023-05-16T04:52:07;3.35;;;1.27;;
65459;SDS011;52058;49.822;6.754;2023-05-16T04:54:33;1.10;;;0.85;;
65459;SDS011;52058;49.822;6.754;2023-05-16T04:57:00;4.03;;;0.68;;
65459;SDS011;52058;49.822;6.754;2023-05-16T04:59:26;2.25;;;0.65;;
65459;SDS011;52058;49.822;6.754;2023-05-16T05:01:53;2.05;;;0.80;;
65459;SDS011;52058;49.822;6.754;2023-05-16T05:04:19;0.70;;;0.70;;
65459;SDS011;52058;49.822;6.754;2023-05-16T05:06:48;0.93;;;0.60;;
65459;SDS011;52058;49.822;6.754;2023-05-16T05:09:14;1.00;;;0.77;;
65459;SDS011;52058;49.822;6.754;2023-05-16T05:11:41;1.08;;;0.90;;
65459;SDS011;52058;49.822;6.754;2023-05-16T05:14:07;4.32;;;0.82;;
65459;SDS011;52058;49.822;6.754;2023-05-16T05:16:34;1.27;;;0.70;;
65459;SDS011;52058;49.822;6.754;2023-05-16T05:19:01;0.70;;;0.60;;
65459;SDS011;52058;49.822;6.754;2023-05-16T05:21:28;1.50;;;0.85;;
65459;SDS011;52058;49.822;6.754;2023-05-16T05:23:56;2.20;;;0.70;;
65459;SDS011;52058;49.822;6.754;2023-05-16T05:26:22;1.95;;;1.00;;
65459;SDS011;52058;49.822;6.754;2023-05-16T05:28:50;1.98;;;0.80;;
65459;SDS011;52058;49.822;6.754;2023-05-16T05:31:16;1.10;;;0.75;;
65459;SDS011;52058;49.822;6.754;2023-05-16T05:33:43;2.92;;;1.35;;
65459;SDS011;52058;49.822;6.754;2023-05-16T05:36:10;1.25;;;0.80;;
65459;SDS011;52058;49.822;6.754;2023-05-16T05:38:37;5.15;;;4.65;;
65459;SDS011;52058;49.822;6.754;2023-05-16T05:41:04;3.63;;;1.40;;
65459;SDS011;52058;49.822;6.754;2023-05-16T05:43:31;2.78;;;1.20;;
65459;SDS011;52058;49.822;6.754;2023-05-16T05:45:58;2.65;;;1.05;;
65459;SDS011;52058;49.822;6.754;2023-05-16T05:48:24;0.82;;;0.80;;
65459;SDS011;52058;49.822;6.754;2023-05-16T05:50:52;2.83;;;1.23;;
65459;SDS011;52058;49.822;6.754;2023-05-16T05:53:19;2.28;;;1.00;;
65459;SDS011;52058;49.822;6.754;2023-05-16T05:55:45;3.13;;;1.10;;
65459;SDS011;52058;49.822;6.754;2023-05-16T05:58:13;1.48;;;0.80;;
65459;SDS011;52058;49.822;6.754;2023-05-16T06:00:40;1.95;;;0.90;;
65459;SDS011;52058;49.822;6.754;2023-05-16T06:03:06;2.30;;;1.30;;
65459;SDS011;52058;49.822;6.754;2023-05-16T06:05:36;1.70;;;1.00;;
65459;SDS011;52058;49.822;6.754;2023-05-16T06:08:02;1.27;;;1.00;;
65459;SDS011;52058;49.822;6.754;2023-05-16T06:10:29;3.95;;;0.90;;
65459;SDS011;52058;49.822;6.754;2023-05-16T06:12:56;1.85;;;1.00;;
65459;SDS011;52058;49.822;6.754;2023-05-16T06:15:23;1.42;;;1.20;;
65459;SDS011;52058;49.822;6.754;2023-05-16T06:17:50;5.72;;;1.20;;
65459;SDS011;52058;49.822;6.754;2023-05-16T06:20:17;2.38;;;1.20;;
65459;SDS011;52058;49.822;6.754;2023-05-16T06:22:43;2.25;;;1.13;;
65459;SDS011;52058;49.822;6.754;2023-05-16T06:25:10;2.30;;;1.27;;
65459;SDS011;52058;49.822;6.754;2023-05-16T06:27:36;2.25;;;1.35;;
65459;SDS011;52058;49.822;6.754;2023-05-16T06:30:03;1.88;;;1.27;;
65459;SDS011;52058;49.822;6.754;2023-05-16T06:32:32;2.78;;;1.50;;
65459;SDS011;52058;49.822;6.754;2023-05-16T06:34:59;3.17;;;1.52;;
65459;SDS011;52058;49.822;6.754;2023-05-16T06:37:25;2.20;;;1.35;;
65459;SDS011;52058;49.822;6.754;2023-05-16T06:39:52;3.22;;;1.73;;
65459;SDS011;52058;49.822;6.754;2023-05-16T06:42:18;2.05;;;1.48;;
65459;SDS011;52058;49.822;6.754;2023-05-16T06:44:45;1.83;;;1.40;;
65459;SDS011;52058;49.822;6.754;2023-05-16T06:47:12;3.45;;;1.60;;
65459;SDS011;52058;49.822;6.754;2023-05-16T06:49:40;3.67;;;1.90;;
65459;SDS011;52058;49.822;6.754;2023-05-16T06:52:06;4.03;;;1.85;;
65459;SDS011;52058;49.822;6.754;2023-05-16T06:54:33;3.58;;;1.55;;
65459;SDS011;52058;49.822;6.754;2023-05-16T06:56:59;4.25;;;1.83;;
65459;SDS011;52058;49.822;6.754;2023-05-16T06:59:27;7.93;;;2.65;;
65459;SDS011;52058;49.822;6.754;2023-05-16T07:01:53;3.05;;;2.20;;
65459;SDS011;52058;49.822;6.754;2023-05-16T07:04:20;4.88;;;2.47;;
65459;SDS011;52058;49.822;6.754;2023-05-16T07:06:48;5.55;;;2.45;;
65459;SDS011;52058;49.822;6.754;2023-05-16T07:09:14;7.28;;;2.70;;
65459;SDS011;52058;49.822;6.754;2023-05-16T07:11:41;4.00;;;2.40;;
65459;SDS011;52058;49.822;6.754;2023-05-16T07:14:08;7.72;;;3.10;;
65459;SDS011;52058;49.822;6.754;2023-05-16T07:16:34;9.52;;;3.25;;
65459;SDS011;52058;49.822;6.754;2023-05-16T07:19:01;8.50;;;3.33;;
65459;SDS011;52058;49.822;6.754;2023-05-16T07:21:28;7.95;;;3.17;;
65459;SDS011;52058;49.822;6.754;2023-05-16T07:23:56;11.68;;;5.40;;
65459;SDS011;52058;49.822;6.754;2023-05-16T07:26:23;8.40;;;3.35;;
65459;SDS011;52058;49.822;6.754;2023-05-16T07:28:49;6.00;;;3.70;;
65459;SDS011;52058;49.822;6.754;2023-05-16T07:31:16;9.50;;;3.47;;
65459;SDS011;52058;49.822;6.754;2023-05-16T07:33:43;11.38;;;3.85;;
65459;SDS011;52058;49.822;6.754;2023-05-16T07:36:10;9.20;;;4.20;;
65459;SDS011;52058;49.822;6.754;2023-05-16T07:38:37;6.25;;;3.50;;
65459;SDS011;52058;49.822;6.754;2023-05-16T07:41:05;8.88;;;3.78;;
65459;SDS011;52058;49.822;6.754;2023-05-16T07:43:32;10.32;;;4.07;;
65459;SDS011;52058;49.822;6.754;2023-05-16T07:45:59;8.07;;;3.72;;
65459;SDS011;52058;49.822;6.754;2023-05-16T07:48:26;8.25;;;3.65;;
65459;SDS011;52058;49.822;6.754;2023-05-16T07:50:53;8.35;;;4.13;;
65459;SDS011;52058;49.822;6.754;2023-05-16T07:53:19;10.15;;;4.35;;
65459;SDS011;52058;49.822;6.754;2023-05-16T07:55:46;10.88;;;4.75;;
65459;SDS011;52058;49.822;6.754;2023-05-16T07:58:14;9.55;;;4.80;;
65459;SDS011;52058;49.822;6.754;2023-05-16T08:00:41;9.43;;;4.05;;
65459;SDS011;52058;49.822;6.754;2023-05-16T08:03:07;7.78;;;4.15;;
65459;SDS011;52058;49.822;6.754;2023-05-16T08:05:34;9.30;;;4.30;;
65459;SDS011;52058;49.822;6.754;2023-05-16T08:08:01;9.45;;;4.10;;
65459;SDS011;52058;49.822;6.754;2023-05-16T08:10:27;8.45;;;3.88;;
65459;SDS011;52058;49.822;6.754;2023-05-16T08:12:54;10.13;;;4.63;;
65459;SDS011;52058;49.822;6.754;2023-05-16T08:15:22;9.77;;;4.85;;
65459;SDS011;52058;49.822;6.754;2023-05-16T08:17:49;17.70;;;4.43;;
65459;SDS011;52058;49.822;6.754;2023-05-16T08:20:15;11.02;;;4.53;;
65459;SDS011;52058;49.822;6.754;2023-05-16T08:22:42;8.00;;;4.20;;
65459;SDS011;52058;49.822;6.754;2023-05-16T08:25:09;6.75;;;3.97;;
65459;SDS011;52058;49.822;6.754;2023-05-16T08:27:35;10.25;;;5.15;;
65459;SDS011;52058;49.822;6.754;2023-05-16T08:30:02;9.20;;;4.18;;
65459;SDS011;52058;49.822;6.754;2023-05-16T08:32:30;6.30;;;3.88;;
65459;SDS011;52058;49.822;6.754;2023-05-16T08:34:57;7.05;;;3.60;;
65459;SDS011;52058;49.822;6.754;2023-05-16T08:37:23;7.80;;;3.35;;
65459;SDS011;52058;49.822;6.754;2023-05-16T08:39:50;5.20;;;3.40;;
65459;SDS011;52058;49.822;6.754;2023-05-16T08:42:16;6.60;;;3.58;;
65459;SDS011;52058;49.822;6.754;2023-05-16T08:44:43;5.95;;;3.05;;
65459;SDS011;52058;49.822;6.754;2023-05-16T08:47:10;5.70;;;3.05;;
65459;SDS011;52058;49.822;6.754;2023-05-16T08:49:40;5.90;;;2.90;;
65459;SDS011;52058;49.822;6.754;2023-05-16T08:52:09;5.38;;;2.70;;
65459;SDS011;52058;49.822;6.754;2023-05-16T08:54:36;7.05;;;3.17;;
65459;SDS011;52058;49.822;6.754;2023-05-16T08:57:03;6.70;;;2.60;;
65459;SDS011;52058;49.822;6.754;2023-05-16T08:59:31;7.78;;;3.45;;
65459;SDS011;52058;49.822;6.754;2023-05-16T09:01:57;5.78;;;2.80;;
65459;SDS011;52058;49.822;6.754;2023-05-16T09:04:24;6.88;;;2.58;;
65459;SDS011;52058;49.822;6.754;2023-05-16T09:06:52;7.10;;;2.80;;
65459;SDS011;52058;49.822;6.754;2023-05-16T09:09:19;6.03;;;2.67;;
65459;SDS011;52058;49.822;6.754;2023-05-16T09:11:46;3.03;;;2.00;;
65459;SDS011;52058;49.822;6.754;2023-05-16T09:14:13;6.20;;;2.13;;
65459;SDS011;52058;49.822;6.754;2023-05-16T09:16:39;7.10;;;1.98;;
65459;SDS011;52058;49.822;6.754;2023-05-16T09:19:06;3.30;;;1.75;;
65459;SDS011;52058;49.822;6.754;2023-05-16T09:21:33;4.68;;;2.15;;
65459;SDS011;52058;49.822;6.754;2023-05-16T09:24:06;5.57;;;2.30;;
65459;SDS011;52058;49.822;6.754;2023-05-16T09:26:35;6.07;;;1.90;;
65459;SDS011;52058;49.822;6.754;2023-05-16T09:29:09;3.88;;;1.95;;
65459;SDS011;52058;49.822;6.754;2023-05-16T09:31:36;5.22;;;2.15;;
65459;SDS011;52058;49.822;6.754;2023-05-16T09:34:03;5.43;;;2.03;;
65459;SDS011;52058;49.822;6.754;2023-05-16T09:36:33;4.82;;;1.98;;
65459;SDS011;52058;49.822;6.754;2023-05-16T09:39:00;5.97;;;2.00;;
65459;SDS011;52058;49.822;6.754;2023-05-16T09:41:28;4.22;;;2.10;;
65459;SDS011;52058;49.822;6.754;2023-05-16T09:43:58;3.17;;;1.95;;
65459;SDS011;52058;49.822;6.754;2023-05-16T09:46:29;4.28;;;1.80;;
65459;SDS011;52058;49.822;6.754;2023-05-16T09:48:56;3.85;;;1.58;;
65459;SDS011;52058;49.822;6.754;2023-05-16T09:51:22;7.38;;;2.17;;
65459;SDS011;52058;49.822;6.754;2023-05-16T09:53:49;5.72;;;1.92;;
65459;SDS011;52058;49.822;6.754;2023-05-16T09:56:15;5.93;;;2.00;;
65459;SDS011;52058;49.822;6.754;2023-05-16T09:58:44;6.55;;;2.22;;
65459;SDS011;52058;49.822;6.754;2023-05-16T10:01:11;4.95;;;2.15;;
65459;SDS011;52058;49.822;6.754;2023-05-16T10:03:38;5.05;;;2.25;;
65459;SDS011;52058;49.822;6.754;2023-05-16T10:06:06;5.07;;;2.00;;
65459;SDS011;52058;49.822;6.754;2023-05-16T10:08:34;4.20;;;1.80;;
65459;SDS011;52058;49.822;6.754;2023-05-16T10:11:02;2.15;;;1.65;;
65459;SDS011;52058;49.822;6.754;2023-05-16T10:13:30;4.78;;;1.67;;
65459;SDS011;52058;49.822;6.754;2023-05-16T10:16:00;4.63;;;1.70;;
65459;SDS011;52058;49.822;6.754;2023-05-16T10:18:31;4.05;;;1.60;;
65459;SDS011;52058;49.822;6.754;2023-05-16T10:21:01;2.85;;;1.88;;
65459;SDS011;52058;49.822;6.754;2023-05-16T10:23:30;6.00;;;1.90;;
65459;SDS011;52058;49.822;6.754;2023-05-16T10:25:59;3.40;;;1.75;;
65459;SDS011;52058;49.822;6.754;2023-05-16T10:28:27;2.92;;;1.80;;
65459;SDS011;52058;49.822;6.754;2023-05-16T10:30:55;5.70;;;2.10;;
65459;SDS011;52058;49.822;6.754;2023-05-16T10:33:23;5.90;;;1.92;;
65459;SDS011;52058;49.822;6.754;2023-05-16T10:35:50;4.00;;;2.08;;
65459;SDS011;52058;49.822;6.754;2023-05-16T10:38:17;3.28;;;1.95;;
65459;SDS011;52058;49.822;6.754;2023-05-16T10:40:46;3.83;;;1.95;;
65459;SDS011;52058;49.822;6.754;2023-05-16T10:43:21;6.90;;;2.20;;
65459;SDS011;52058;49.822;6.754;2023-05-16T10:45:52;2.28;;;1.70;;
65459;SDS011;52058;49.822;6.754;2023-05-16T10:48:26;3.53;;;1.80;;
65459;SDS011;52058;49.822;6.754;2023-05-16T10:50:54;5.00;;;2.10;;
65459;SDS011;52058;49.822;6.754;2023-05-16T10:53:21;4.50;;;1.90;;
65459;SDS011;52058;49.822;6.754;2023-05-16T10:55:49;3.45;;;1.77;;
65459;SDS011;52058;49.822;6.754;2023-05-16T10:58:38;2.90;;;1.75;;
65459;SDS011;52058;49.822;6.754;2023-05-16T11:01:16;3.97;;;2.10;;
65459;SDS011;52058;49.822;6.754;2023-05-16T11:04:07;5.72;;;1.92;;
65459;SDS011;52058;49.822;6.754;2023-05-16T11:06:43;5.55;;;1.80;;
65459;SDS011;52058;49.822;6.754;2023-05-16T11:09:17;4.57;;;1.77;;
65459;SDS011;52058;49.822;6.754;2023-05-16T11:11:53;3.50;;;1.70;;
65459;SDS011;52058;49.822;6.754;2023-05-16T11:14:23;3.67;;;1.60;;
65459;SDS011;52058;49.822;6.754;2023-05-16T11:16:51;3.08;;;1.45;;
65459;SDS011;52058;49.822;6.754;2023-05-16T11:19:30;5.05;;;1.88;;
65459;SDS011;52058;49.822;6.754;2023-05-16T11:22:08;4.32;;;1.38;;
65459;SDS011;52058;49.822;6.754;2023-05-16T11:24:36;4.55;;;1.48;;
65459;SDS011;52058;49.822;6.754;2023-05-16T11:27:04;5.22;;;1.75;;
65459;SDS011;52058;49.822;6.754;2023-05-16T11:29:31;4.88;;;1.20;;
65459;SDS011;52058;49.822;6.754;2023-05-16T11:31:59;5.40;;;2.15;;
65459;SDS011;52058;49.822;6.754;2023-05-16T11:34:27;3.25;;;1.33;;
65459;SDS011;52058;49.822;6.754;2023-05-16T11:36:56;3.70;;;1.40;;
65459;SDS011;52058;49.822;6.754;2023-05-16T11:39:24;1.92;;;1.23;;
65459;SDS011;52058;49.822;6.754;2023-05-16T11:41:50;8.13;;;1.30;;
65459;SDS011;52058;49.822;6.754;2023-05-16T11:44:18;1.85;;;1.00;;
65459;SDS011;52058;49.822;6.754;2023-05-16T11:46:45;5.53;;;1.17;;
65459;SDS011;52058;49.822;6.754;2023-05-16T11:49:11;3.88;;;1.10;;
65459;SDS011;52058;49.822;6.754;2023-05-16T11:51:40;2.53;;;1.10;;
65459;SDS011;52058;49.822;6.754;2023-05-16T11:54:07;2.80;;;1.20;;
65459;SDS011;52058;49.822;6.754;2023-05-16T11:56:35;3.60;;;0.98;;
65459;SDS011;52058;49.822;6.754;2023-05-16T11:59:02;3.38;;;1.67;;
65459;SDS011;52058;49.822;6.754;2023-05-16T12:01:32;3.78;;;1.40;;
65459;SDS011;52058;49.822;6.754;2023-05-16T12:03:59;3.67;;;1.02;;
65459;SDS011;52058;49.822;6.754;2023-05-16T12:06:26;8.00;;;1.65;;
65459;SDS011;52058;49.822;6.754;2023-05-16T12:08:56;3.78;;;1.15;;
65459;SDS011;52058;49.822;6.754;2023-05-16T12:11:23;5.10;;;1.27;;
65459;SDS011;52058;49.822;6.754;2023-05-16T12:13:49;4.45;;;1.15;;
65459;SDS011;52058;49.822;6.754;2023-05-16T12:16:16;3.05;;;1.10;;
65459;SDS011;52058;49.822;6.754;2023-05-16T12:18:43;4.43;;;1.15;;
65459;SDS011;52058;49.822;6.754;2023-05-16T12:21:10;2.17;;;1.10;;
65459;SDS011;52058;49.822;6.754;2023-05-16T12:23:37;3.45;;;1.08;;
65459;SDS011;52058;49.822;6.754;2023-05-16T12:26:08;2.90;;;1.10;;
65459;SDS011;52058;49.822;6.754;2023-05-16T12:28:34;3.15;;;0.88;;
65459;SDS011;52058;49.822;6.754;2023-05-16T12:31:03;2.58;;;0.80;;
65459;SDS011;52058;49.822;6.754;2023-05-16T12:33:36;4.47;;;1.27;;
65459;SDS011;52058;49.822;6.754;2023-05-16T12:36:02;4.80;;;0.82;;
65459;SDS011;52058;49.822;6.754;2023-05-16T12:38:29;6.13;;;1.33;;
65459;SDS011;52058;49.822;6.754;2023-05-16T12:40:56;3.08;;;0.88;;
65459;SDS011;52058;49.822;6.754;2023-05-16T12:43:25;2.70;;;0.88;;
65459;SDS011;52058;49.822;6.754;2023-05-16T12:45:52;5.07;;;1.40;;
65459;SDS011;52058;49.822;6.754;2023-05-16T12:48:21;3.10;;;0.80;;
65459;SDS011;52058;49.822;6.754;2023-05-16T12:50:48;5.97;;;1.15;;
65459;SDS011;52058;49.822;6.754;2023-05-16T12:53:16;2.97;;;1.05;;
65459;SDS011;52058;49.822;6.754;2023-05-16T12:55:43;3.13;;;1.10;;
65459;SDS011;52058;49.822;6.754;2023-05-16T12:58:10;2.72;;;0.80;;
65459;SDS011;52058;49.822;6.754;2023-05-16T13:00:38;1.45;;;0.75;;
65459;SDS011;52058;49.822;6.754;2023-05-16T13:03:05;1.90;;;0.80;;
65459;SDS011;52058;49.822;6.754;2023-05-16T13:05:32;4.70;;;1.08;;
65459;SDS011;52058;49.822;6.754;2023-05-16T13:07:59;3.08;;;0.80;;
65459;SDS011;52058;49.822;6.754;2023-05-16T13:10:26;3.63;;;0.95;;
65459;SDS011;52058;49.822;6.754;2023-05-16T13:12:53;4.55;;;1.10;;
65459;SDS011;52058;49.822;6.754;2023-05-16T13:15:22;4.40;;;1.27;;
65459;SDS011;52058;49.822;6.754;2023-05-16T13:17:50;4.22;;;0.90;;
65459;SDS011;52058;49.822;6.754;2023-05-16T13:20:17;3.10;;;0.98;;
65459;SDS011;52058;49.822;6.754;2023-05-16T13:22:44;2.97;;;1.35;;
65459;SDS011;52058;49.822;6.754;2023-05-16T13:25:10;2.20;;;1.30;;
65459;SDS011;52058;49.822;6.754;2023-05-16T13:27:37;3.88;;;1.30;;
65459;SDS011;52058;49.822;6.754;2023-05-16T13:30:04;4.65;;;1.05;;
65459;SDS011;52058;49.822;6.754;2023-05-16T13:32:31;3.35;;;1.10;;
65459;SDS011;52058;49.822;6.754;2023-05-16T13:34:59;3.83;;;1.30;;
65459;SDS011;52058;49.822;6.754;2023-05-16T13:37:26;2.10;;;0.98;;
65459;SDS011;52058;49.822;6.754;2023-05-16T13:39:52;2.88;;;1.08;;
65459;SDS011;52058;49.822;6.754;2023-05-16T13:42:20;1.65;;;1.00;;
65459;SDS011;52058;49.822;6.754;2023-05-16T13:44:46;2.60;;;0.80;;
65459;SDS011;52058;49.822;6.754;2023-05-16T13:47:13;2.83;;;1.00;;
65459;SDS011;52058;49.822;6.754;2023-05-16T13:49:40;3.85;;;1.27;;
65459;SDS011;52058;49.822;6.754;2023-05-16T13:52:08;3.08;;;1.20;;
65459;SDS011;52058;49.822;6.754;2023-05-16T13:54:34;3.30;;;1.13;;
65459;SDS011;52058;49.822;6.754;2023-05-16T13:57:01;3.58;;;1.20;;
65459;SDS011;52058;49.822;6.754;2023-05-16T13:59:28;3.72;;;1.10;;
65459;SDS011;52058;49.822;6.754;2023-05-16T14:01:55;4.18;;;0.98;;
65459;SDS011;52058;49.822;6.754;2023-05-16T14:04:21;4.50;;;1.00;;
65459;SDS011;52058;49.822;6.754;2023-05-16T14:06:48;3.65;;;1.05;;
65459;SDS011;52058;49.822;6.754;2023-05-16T14:09:16;2.10;;;0.90;;
65459;SDS011;52058;49.822;6.754;2023-05-16T14:11:42;4.10;;;1.00;;
65459;SDS011;52058;49.822;6.754;2023-05-16T14:14:09;3.53;;;0.95;;
65459;SDS011;52058;49.822;6.754;2023-05-16T14:16:35;3.75;;;1.02;;
65459;SDS011;52058;49.822;6.754;2023-05-16T14:19:02;7.18;;;1.10;;
65459;SDS011;52058;49.822;6.754;2023-05-16T14:21:28;1.17;;;0.85;;
65459;SDS011;52058;49.822;6.754;2023-05-16T14:23:55;2.58;;;1.08;;
65459;SDS011;52058;49.822;6.754;2023-05-16T14:26:23;3.22;;;1.10;;
65459;SDS011;52058;49.822;6.754;2023-05-16T14:28:50;1.50;;;0.80;;
65459;SDS011;52058;49.822;6.754;2023-05-16T14:31:17;4.25;;;1.10;;
65459;SDS011;52058;49.822;6.754;2023-05-16T14:33:44;1.65;;;0.80;;
65459;SDS011;52058;49.822;6.754;2023-05-16T14:36:12;3.00;;;0.90;;
65459;SDS011;52058;49.822;6.754;2023-05-16T14:38:40;2.50;;;0.95;;
65459;SDS011;52058;49.822;6.754;2023-05-16T14:41:06;1.25;;;1.00;;
65459;SDS011;52058;49.822;6.754;2023-05-16T14:43:34;6.90;;;0.82;;
65459;SDS011;52058;49.822;6.754;2023-05-16T14:46:02;3.15;;;1.10;;
65459;SDS011;52058;49.822;6.754;2023-05-16T14:48:28;2.97;;;0.93;;
65459;SDS011;52058;49.822;6.754;2023-05-16T14:50:55;2.60;;;0.80;;
65459;SDS011;52058;49.822;6.754;2023-05-16T14:53:22;4.75;;;1.13;;